Time;durP1;ratioP1;P1;durP2;ratioP2;P2;SDS_P1;SDS_P2;PMS_P1;PMS_P2;Temp;Humidity;BMP_temperature;BMP_pressure;BME280_temperature;BME280_humidity;BME280_pressure;Samples;Min_cycle;Max_cycle;Signal;HPM_P1;HPM_P2
2022/02/25 00:02:14;;;;;;;18.38;11.85;;;;;;;1.43;70.11;100328.63;4884314;29;20044;-82
2022/02/25 00:04:41;;;;;;;18.55;11.20;;;;;;;1.36;70.26;100331.47;4884221;29;20051;-81
2022/02/25 00:07:06;;;;;;;14.35;9.93;;;;;;;1.21;70.39;100332.72;4868700;29;20079;-81
2022/02/25 00:09:32;;;;;;;17.52;11.00;;;;;;;1.21;70.60;100330.09;4899614;29;20124;-82
2022/02/25 00:11:58;;;;;;;16.95;10.80;;;;;;;1.14;70.78;100337.28;4899350;29;20500;-82
2022/02/25 00:14:25;;;;;;;19.27;11.70;;;;;;;1.19;70.76;100343.28;4899824;29;20583;-81
2022/02/25 00:16:51;;;;;;;17.25;11.40;;;;;;;1.29;70.28;100340.41;4899907;29;20059;-81
2022/02/25 00:19:18;;;;;;;17.60;12.23;;;;;;;1.30;70.24;100334.25;4915284;29;20415;-81
2022/02/25 00:21:44;;;;;;;19.10;11.48;;;;;;;1.28;70.67;100342.19;4884248;29;20055;-81
2022/02/25 00:24:10;;;;;;;17.42;10.93;;;;;;;1.25;70.38;100349.31;4883992;29;20048;-82
2022/02/25 00:26:36;;;;;;;18.55;11.85;;;;;;;1.25;70.71;100344.91;4884014;29;20075;-81
2022/02/25 00:29:05;;;;;;;19.05;10.90;;;;;;;1.11;70.85;100350.50;4883958;29;20416;-80
2022/02/25 00:31:31;;;;;;;16.90;10.20;;;;;;;1.06;71.50;100359.44;4868255;29;20496;-82
2022/02/25 00:33:58;;;;;;;18.60;10.88;;;;;;;1.11;71.08;100347.88;4916412;29;20138;-83
2022/02/25 00:36:24;;;;;;;18.83;11.57;;;;;;;1.23;70.72;100364.28;4916489;29;20064;-80
2022/02/25 00:38:50;;;;;;;19.30;12.05;;;;;;;1.17;71.23;100357.41;4914999;29;20389;-80
2022/02/25 00:41:16;;;;;;;18.30;11.23;;;;;;;1.12;71.16;100354.88;4900300;29;20119;-80
2022/02/25 00:43:42;;;;;;;19.95;11.23;;;;;;;1.16;71.23;100351.25;4871713;29;20047;-80
2022/02/25 00:46:08;;;;;;;16.27;11.70;;;;;;;1.24;71.23;100358.09;4871799;29;20043;-81
2022/02/25 00:48:34;;;;;;;20.65;12.38;;;;;;;1.33;70.95;100363.16;4919601;29;20052;-80
2022/02/25 00:51:00;;;;;;;20.60;12.02;;;;;;;1.26;71.12;100367.69;4902762;29;20146;-79
2022/02/25 00:53:26;;;;;;;21.52;11.90;;;;;;;1.32;70.96;100362.28;4918231;29;20043;-82
2022/02/25 00:55:52;;;;;;;19.40;12.40;;;;;;;1.34;71.14;100364.88;4902509;29;20059;-81
2022/02/25 00:58:19;;;;;;;16.05;10.48;;;;;;;1.31;71.09;100376.34;4902550;29;20059;-81
2022/02/25 01:00:46;;;;;;;18.02;12.00;;;;;;;1.16;71.22;100367.06;4919357;29;20050;-79
2022/02/25 01:03:11;;;;;;;18.92;12.30;;;;;;;1.14;71.63;100384.69;4902583;29;20134;-80
2022/02/25 01:05:37;;;;;;;19.35;12.20;;;;;;;1.16;71.86;100377.59;4871403;29;20062;-79
2022/02/25 01:08:07;;;;;;;18.67;11.30;;;;;;;1.25;71.29;100388.81;4886761;29;20508;-81
2022/02/25 01:10:35;;;;;;;;;;;;;;;1.25;71.71;100391.44;4887102;29;20502;-80
2022/02/25 01:13:01;;;;;;;18.02;10.65;;;;;;;1.11;71.83;100394.41;4886781;29;19970;-81
2022/02/25 01:15:27;;;;;;;20.73;12.13;;;;;;;1.15;71.91;100404.84;4887009;29;20052;-81
2022/02/25 01:17:53;;;;;;;19.50;11.30;;;;;;;1.10;72.33;100401.47;4871216;29;20514;-81
2022/02/25 01:20:19;;;;;;;21.42;11.63;;;;;;;1.12;72.10;100412.81;4870959;29;20051;-81
2022/02/25 01:22:45;;;;;;;18.10;12.65;;;;;;;1.17;71.90;100408.31;4919287;29;20252;-81
2022/02/25 01:25:12;;;;;;;17.88;10.77;;;;;;;1.10;72.52;100398.81;4902149;29;20146;-81
2022/02/25 01:27:38;;;;;;;23.10;11.80;;;;;;;1.10;72.12;100419.88;4902451;29;20056;-81
2022/02/25 01:30:05;;;;;;;17.52;9.95;;;;;;;1.08;72.44;100413.78;4902033;29;20144;-81
2022/02/25 01:32:30;;;;;;;17.48;10.88;;;;;;;0.97;72.80;100426.34;4917640;29;20519;-80
2022/02/25 01:34:57;;;;;;;17.58;11.27;;;;;;;0.94;72.80;100429.03;4917610;29;20047;-79
2022/02/25 01:37:24;;;;;;;16.83;9.32;;;;;;;0.92;72.80;100428.22;4886432;29;20556;-81
2022/02/25 01:39:50;;;;;;;19.17;11.75;;;;;;;0.93;73.16;100424.69;4901988;29;20044;-80
2022/02/25 01:42:16;;;;;;;17.60;12.75;;;;;;;0.93;72.72;100437.84;4886268;29;20072;-79
2022/02/25 01:44:42;;;;;;;16.98;11.10;;;;;;;0.97;72.67;100435.09;4901902;29;20062;-80
2022/02/25 01:47:08;;;;;;;17.48;10.40;;;;;;;0.86;72.97;100436.25;4902260;29;20500;-81
2022/02/25 01:49:34;;;;;;;17.90;11.63;;;;;;;0.82;73.15;100442.47;4887176;29;20052;-81
2022/02/25 01:52:02;;;;;;;19.88;11.52;;;;;;;0.87;72.90;100438.88;4887492;29;20051;-81
2022/02/25 01:54:29;;;;;;;22.50;11.88;;;;;;;0.88;72.85;100453.75;4887500;29;20048;-81
2022/02/25 01:56:55;;;;;;;19.75;11.27;;;;;;;0.89;72.73;100438.81;4902181;29;20044;-81
2022/02/25 01:59:22;;;;;;;20.80;11.93;;;;;;;0.84;73.18;100443.31;4901964;29;20052;-81
2022/02/25 02:01:47;;;;;;;20.67;13.02;;;;;;;0.79;73.05;100438.19;4885880;29;20500;-81
2022/02/25 02:04:14;;;;;;;20.88;12.35;;;;;;;0.83;73.13;100452.09;4885870;29;20048;-81
2022/02/25 02:06:40;;;;;;;20.38;12.98;;;;;;;0.94;72.42;100450.97;4885748;29;20050;-79
2022/02/25 02:09:06;;;;;;;19.92;12.05;;;;;;;0.82;72.92;100445.13;4918431;29;20191;-80
2022/02/25 02:11:37;;;;;;;18.92;11.77;;;;;;;0.91;72.67;100455.44;4917897;29;20086;-82
2022/02/25 02:14:05;;;;;;;20.80;11.25;;;;;;;0.88;72.96;100463.41;4902088;29;20056;-82
2022/02/25 02:16:31;;;;;;;15.27;9.77;;;;;;;0.76;73.04;100463.69;4870629;29;20135;-79
2022/02/25 02:18:57;;;;;;;19.45;12.18;;;;;;;0.81;73.28;100460.03;4918334;29;20131;-81
2022/02/25 02:21:25;;;;;;;21.17;12.25;;;;;;;0.83;72.76;100452.09;4902838;29;20063;-80
2022/02/25 02:23:53;;;;;;;22.05;11.82;;;;;;;0.85;73.06;100459.06;4934850;29;20044;-81
2022/02/25 02:26:18;;;;;;;19.58;11.50;;;;;;;0.83;73.06;100455.63;4901591;29;20047;-80
2022/02/25 02:28:44;;;;;;;19.38;11.60;;;;;;;0.69;73.63;100462.94;4912969;29;20143;-81
2022/02/25 02:31:10;;;;;;;24.65;13.55;;;;;;;0.79;73.36;100466.22;4869747;29;20079;-81
2022/02/25 02:33:37;;;;;;;21.27;12.75;;;;;;;0.85;73.12;100466.09;4885306;29;20048;-81
2022/02/25 02:36:04;;;;;;;22.85;12.00;;;;;;;0.83;73.09;100463.53;4901013;29;20103;-82
2022/02/25 02:38:30;;;;;;;19.30;11.07;;;;;;;0.89;72.60;100478.28;4900707;29;20523;-81
2022/02/25 02:40:56;;;;;;;20.67;12.02;;;;;;;0.82;72.79;100477.56;4900361;29;20039;-80
2022/02/25 02:43:22;;;;;;;21.65;11.73;;;;;;;0.80;73.20;100483.78;4885330;29;20074;-80
2022/02/25 02:45:48;;;;;;;19.92;12.60;;;;;;;0.75;73.32;100485.63;4884504;29;20108;-81
2022/02/25 02:48:14;;;;;;;22.27;12.38;;;;;;;0.70;73.06;100489.22;4885466;29;20044;-80
2022/02/25 02:50:41;;;;;;;21.27;13.13;;;;;;;0.64;73.48;100476.22;4884736;29;20058;-80
2022/02/25 02:53:07;;;;;;;23.00;13.15;;;;;;;0.75;73.44;100486.47;4885686;29;20453;-81
2022/02/25 02:55:33;;;;;;;22.33;12.30;;;;;;;0.75;73.00;100493.50;4900680;29;20408;-81
2022/02/25 02:57:59;;;;;;;20.58;12.52;;;;;;;0.78;73.13;100496.09;4900967;29;20139;-83
2022/02/25 03:00:25;;;;;;;27.58;13.45;;;;;;;0.82;73.33;100487.22;4870125;29;20136;-81
2022/02/25 03:02:51;;;;;;;23.13;12.48;;;;;;;0.82;73.13;100498.63;4870362;29;20071;-83
2022/02/25 03:05:18;;;;;;;20.25;12.45;;;;;;;0.82;72.81;100503.88;4884485;29;20130;-81
2022/02/25 03:07:47;;;;;;;21.42;13.45;;;;;;;0.72;73.40;100491.84;4900638;29;20071;-82
2022/02/25 03:10:13;;;;;;;19.30;12.27;;;;;;;0.88;73.10;100513.44;4885080;29;20040;-81
2022/02/25 03:12:42;;;;;;;20.45;12.15;;;;;;;0.88;72.68;100506.38;4917193;29;20088;-82
2022/02/25 03:15:09;;;;;;;18.77;11.13;;;;;;;0.96;73.04;100508.84;4901651;29;20060;-79
2022/02/25 03:17:36;;;;;;;20.45;12.50;;;;;;;1.33;74.29;100510.66;4901136;29;20516;-82
2022/02/25 03:20:04;;;;;;;21.50;12.18;;;;;;;1.37;72.91;100517.59;4900392;29;20051;-81
2022/02/25 03:22:32;;;;;;;34.42;12.23;;;;;;;1.30;71.85;100508.09;4900106;29;20091;-82
2022/02/25 03:24:58;;;;;;;20.45;11.93;;;;;;;1.32;71.84;100525.59;4900155;29;20052;-81
2022/02/25 03:27:24;;;;;;;25.85;11.75;;;;;;;1.21;71.90;100507.41;4884181;29;20130;-79
2022/02/25 03:29:50;;;;;;;20.05;11.93;;;;;;;1.16;72.03;100525.06;4855324;29;20135;-79
2022/02/25 03:32:16;;;;;;;22.75;13.07;;;;;;;1.18;71.71;100518.00;4871854;29;20037;-80
2022/02/25 03:34:42;;;;;;;27.27;11.98;;;;;;;1.11;72.11;100526.94;4918621;29;20469;-80
2022/02/25 03:37:08;;;;;;;18.35;11.13;;;;;;;1.08;71.92;100532.28;4887343;29;20071;-80
2022/02/25 03:39:34;;;;;;;22.73;12.98;;;;;;;1.19;71.98;100535.53;4885399;29;20062;-79
2022/02/25 03:42:00;;;;;;;24.65;12.63;;;;;;;1.26;72.10;100551.22;4900380;29;20058;-80
2022/02/25 03:44:26;;;;;;;20.70;12.90;;;;;;;1.42;71.66;100553.44;4900124;29;20044;-79
2022/02/25 03:46:53;;;;;;;21.30;12.20;;;;;;;1.62;71.71;100560.91;4899871;29;20047;-80
2022/02/25 03:49:18;;;;;;;23.02;11.32;;;;;;;1.66;70.97;100557.28;4869092;29;20055;-82
2022/02/25 03:51:44;;;;;;;24.52;12.93;;;;;;;1.81;70.78;100556.03;4915025;29;20076;-81
2022/02/25 03:54:10;;;;;;;21.92;13.23;;;;;;;1.86;70.27;100555.94;4884376;29;20127;-80
2022/02/25 03:56:36;;;;;;;24.67;13.05;;;;;;;1.95;70.25;100566.22;4868526;29;20070;-81
2022/02/25 03:59:03;;;;;;;18.27;12.13;;;;;;;2.04;70.09;100563.38;4899432;29;20048;-80
2022/02/25 04:01:29;;;;;;;21.00;12.32;;;;;;;2.14;69.32;100572.78;4915311;29;20087;-81
2022/02/25 04:03:55;;;;;;;19.42;11.68;;;;;;;2.09;69.38;100579.06;4865078;29;20044;-82
2022/02/25 04:06:21;;;;;;;21.50;12.73;;;;;;;1.95;68.85;100574.13;4888924;29;20508;-80
2022/02/25 04:08:47;;;;;;;23.45;11.18;;;;;;;1.91;68.65;100577.75;4858877;29;20043;-82
2022/02/25 04:11:13;;;;;;;20.92;12.68;;;;;;;1.87;69.23;100586.66;4873633;29;20040;-78
2022/02/25 04:13:39;;;;;;;22.83;12.85;;;;;;;1.98;69.31;100583.75;4891299;29;20184;-81
2022/02/25 04:16:06;;;;;;;18.20;12.35;;;;;;;1.94;68.87;100588.25;4874861;29;20476;-78
2022/02/25 04:18:32;;;;;;;20.27;12.20;;;;;;;2.04;69.42;100583.63;4894023;29;20044;-80
2022/02/25 04:20:58;;;;;;;25.08;12.70;;;;;;;2.05;68.64;100588.84;4892251;29;20530;-83
2022/02/25 04:23:23;;;;;;;20.08;11.98;;;;;;;2.01;68.85;100589.81;4909307;29;20112;-81
2022/02/25 04:25:49;;;;;;;20.50;12.68;;;;;;;2.04;68.98;100588.88;4891828;29;20036;-79
2022/02/25 04:28:16;;;;;;;28.83;13.00;;;;;;;2.28;68.80;100592.66;4878332;29;20044;-82
2022/02/25 04:30:42;;;;;;;19.67;12.65;;;;;;;2.55;69.02;100589.28;4910218;29;20052;-80
2022/02/25 04:33:08;;;;;;;20.52;12.27;;;;;;;2.45;67.78;100590.44;4876568;29;20067;-80
2022/02/25 04:35:34;;;;;;;28.80;11.63;;;;;;;2.55;67.96;100597.19;4878289;29;20433;-80
2022/02/25 04:38:00;;;;;;;17.38;11.25;;;;;;;2.80;67.74;100604.44;4878097;29;20032;-78
2022/02/25 04:40:26;;;;;;;18.67;12.00;;;;;;;2.96;67.31;100603.09;4878876;29;20044;-79
2022/02/25 04:42:52;;;;;;;21.30;13.57;;;;;;;3.10;66.38;100606.22;4880666;29;20055;-82
2022/02/25 04:45:18;;;;;;;21.38;12.77;;;;;;;3.17;66.07;100610.41;4922387;29;20043;-79
2022/02/25 04:47:44;;;;;;;25.95;13.20;;;;;;;3.26;66.24;100613.69;4891339;29;20052;-80
2022/02/25 04:50:11;;;;;;;29.92;15.52;;;;;;;3.22;65.06;100614.69;4891595;29;20119;-81
2022/02/25 04:52:37;;;;;;;21.90;13.07;;;;;;;3.13;65.29;100611.41;4890461;29;20083;-81
2022/02/25 04:55:04;;;;;;;21.85;12.88;;;;;;;3.24;65.33;100619.03;4901239;29;20084;-80
2022/02/25 04:57:30;;;;;;;24.92;12.82;;;;;;;3.33;64.88;100628.44;4893285;29;20035;-80
2022/02/25 04:59:56;;;;;;;17.67;11.98;;;;;;;3.44;65.12;100629.00;4892221;29;20443;-80
2022/02/25 05:02:22;;;;;;;22.73;12.50;;;;;;;3.38;64.42;100626.53;4911639;29;20051;-79
2022/02/25 05:04:48;;;;;;;19.40;12.75;;;;;;;3.52;64.28;100623.47;4886696;29;20596;-78
2022/02/25 05:07:14;;;;;;;23.55;12.32;;;;;;;3.62;64.13;100636.38;4904688;29;20095;-80
2022/02/25 05:09:40;;;;;;;20.63;12.18;;;;;;;3.75;63.88;100636.84;4901991;29;20504;-81
2022/02/25 05:12:06;;;;;;;21.58;13.07;;;;;;;3.89;63.56;100649.66;4919130;29;20064;-81
2022/02/25 05:20:16;;;;;;;20.02;11.80;;;;;;;3.56;62.65;100651.56;4892773;29;20397;-81
2022/02/25 05:22:42;;;;;;;22.08;12.82;;;;;;;3.41;62.94;100647.59;4919044;29;20063;-84
2022/02/25 05:25:09;;;;;;;21.23;13.07;;;;;;;3.45;63.58;100662.44;4888562;29;20036;-82
2022/02/25 05:27:35;;;;;;;24.85;14.90;;;;;;;3.46;63.60;100661.56;4919487;29;20445;-79
2022/02/25 05:30:03;;;;;;;20.33;12.75;;;;;;;3.69;63.81;100667.94;4918909;29;20048;-78
2022/02/25 05:32:29;;;;;;;22.65;14.02;;;;;;;3.94;63.06;100670.66;4918637;29;20036;-79
2022/02/25 05:34:55;;;;;;;25.40;13.63;;;;;;;4.03;62.29;100662.44;4887333;29;20103;-80
2022/02/25 05:37:21;;;;;;;21.15;13.40;;;;;;;4.25;62.29;100663.47;4887141;29;20048;-80
2022/02/25 05:39:47;;;;;;;21.80;13.60;;;;;;;4.44;61.22;100663.72;4886962;29;20048;-79
2022/02/25 05:42:13;;;;;;;23.15;13.80;;;;;;;4.48;60.81;100672.44;4900701;29;20522;-78
2022/02/25 05:44:39;;;;;;;19.83;11.13;;;;;;;4.11;60.28;100666.56;4885390;29;20050;-78
2022/02/25 05:47:05;;;;;;;20.55;12.65;;;;;;;3.72;61.10;100662.53;4901000;29;20110;-79
2022/02/25 05:49:30;;;;;;;30.42;13.85;;;;;;;3.73;61.53;100674.84;4900894;29;20496;-87
2022/02/25 05:51:56;;;;;;;22.20;13.18;;;;;;;3.87;61.83;100672.63;4886588;29;20051;-83
2022/02/25 05:54:22;;;;;;;23.38;13.50;;;;;;;3.66;61.47;100687.38;4918223;29;20083;-80
2022/02/25 05:56:48;;;;;;;22.67;13.02;;;;;;;3.78;61.74;100672.91;4901044;29;20074;-82
2022/02/25 05:59:14;;;;;;;18.55;10.25;;;;;;;3.46;61.62;100674.78;4900995;29;20059;-81
2022/02/25 06:01:40;;;;;;;19.13;11.68;;;;;;;3.51;61.76;100685.19;4869906;29;20059;-79
2022/02/25 06:04:06;;;;;;;25.73;13.15;;;;;;;3.22;62.31;100693.97;4914107;29;20040;-79
2022/02/25 06:06:32;;;;;;;19.98;12.07;;;;;;;3.26;62.96;100695.59;4866588;29;20044;-78
2022/02/25 06:08:59;;;;;;;19.83;11.95;;;;;;;3.02;63.09;100697.16;4871149;29;20419;-82
2022/02/25 06:11:24;;;;;;;20.05;11.00;;;;;;;2.90;63.41;100703.66;4885487;29;20064;-80
2022/02/25 06:13:50;;;;;;;21.60;12.07;;;;;;;2.82;63.96;100708.25;4900699;29;20048;-81
2022/02/25 06:16:16;;;;;;;18.20;11.27;;;;;;;2.71;64.29;100715.56;4866133;29;20048;-79
2022/02/25 06:18:42;;;;;;;19.83;11.75;;;;;;;2.44;64.84;100728.56;4907221;29;20048;-79
2022/02/25 06:21:09;;;;;;;18.02;10.93;;;;;;;2.40;64.98;100722.50;4884894;29;20130;-82
2022/02/25 06:23:35;;;;;;;24.73;13.60;;;;;;;2.61;65.32;100721.09;4869525;29;20061;-80
2022/02/25 06:26:01;;;;;;;22.17;13.18;;;;;;;3.00;64.56;100720.97;4900324;29;20150;-81
2022/02/25 06:28:27;;;;;;;18.17;12.85;;;;;;;3.41;64.15;100726.88;4869345;29;20048;-81
2022/02/25 06:30:55;;;;;;;23.52;13.38;;;;;;;3.84;62.98;100721.22;4917052;29;20076;-81
2022/02/25 06:33:21;;;;;;;20.80;12.63;;;;;;;3.83;61.77;100729.19;4884668;29;20111;-79
2022/02/25 06:35:46;;;;;;;21.85;12.45;;;;;;;4.04;61.66;100720.59;4884812;29;20040;-81
2022/02/25 06:38:12;;;;;;;19.42;12.40;;;;;;;4.51;60.96;100739.38;4900176;29;20055;-81
2022/02/25 06:40:38;;;;;;;20.98;13.32;;;;;;;4.77;60.17;100732.34;4878407;29;20146;-79
2022/02/25 06:43:04;;;;;;;21.77;12.90;;;;;;;4.89;59.21;100742.53;4881417;29;20103;-80
2022/02/25 06:45:30;;;;;;;17.40;11.07;;;;;;;4.54;58.14;100744.56;4850584;29;20056;-81
2022/02/25 06:47:56;;;;;;;19.85;13.15;;;;;;;4.41;58.87;100748.53;4882208;29;20052;-81
2022/02/25 06:50:22;;;;;;;19.52;12.15;;;;;;;4.57;59.21;100739.19;4850897;29;20045;-81
2022/02/25 06:52:48;;;;;;;20.40;11.60;;;;;;;4.66;58.58;100742.44;4836054;29;20083;-81
2022/02/25 06:55:16;;;;;;;20.05;11.63;;;;;;;4.81;57.94;100741.91;4881743;29;20044;-81
2022/02/25 06:57:42;;;;;;;16.42;10.27;;;;;;;4.45;57.44;100744.88;4866594;29;20059;-81
2022/02/25 07:00:11;;;;;;;16.70;9.95;;;;;;;4.05;57.97;100735.53;4850933;29;20049;-80
2022/02/25 07:02:37;;;;;;;17.00;10.43;;;;;;;4.16;57.73;100752.88;4851592;29;20071;-81
2022/02/25 07:05:04;;;;;;;19.38;10.55;;;;;;;4.41;58.35;100745.03;4881681;29;20493;-80
2022/02/25 07:07:30;;;;;;;17.90;10.60;;;;;;;4.65;57.36;100753.94;4866496;29;20044;-79
2022/02/25 07:09:56;;;;;;;16.58;10.60;;;;;;;4.89;57.41;100763.75;4898048;29;20245;-80
2022/02/25 07:12:22;;;;;;;15.57;10.55;;;;;;;5.03;55.84;100764.09;4881318;29;20064;-78
2022/02/25 07:14:49;;;;;;;16.75;9.23;;;;;;;4.74;56.00;100749.22;4898295;29;20518;-79
2022/02/25 07:17:15;;;;;;;15.15;9.30;;;;;;;4.88;55.73;100760.19;4866190;29;20048;-78
2022/02/25 07:19:41;;;;;;;16.88;10.25;;;;;;;5.02;55.71;100770.34;4881270;29;20095;-80
2022/02/25 07:22:06;;;;;;;15.18;9.02;;;;;;;5.39;54.89;100771.69;4897738;29;20056;-79
2022/02/25 07:24:33;;;;;;;23.58;9.27;;;;;;;5.79;54.74;100764.91;4865796;29;20040;-80
2022/02/25 07:26:58;;;;;;;16.13;9.75;;;;;;;6.04;53.11;100776.38;4896604;29;20049;-79
2022/02/25 07:29:24;;;;;;;12.48;7.35;;;;;;;5.89;51.88;100768.09;4897991;29;20056;-80
2022/02/25 07:31:50;;;;;;;15.25;7.95;;;;;;;5.68;52.16;100767.09;4881553;29;20457;-79
2022/02/25 07:34:16;;;;;;;17.50;7.70;;;;;;;5.70;52.62;100786.50;4896613;29;20048;-79
2022/02/25 07:36:42;;;;;;;10.10;6.30;;;;;;;5.32;51.94;100775.50;4850189;29;20178;-79
2022/02/25 07:39:08;;;;;;;9.32;5.82;;;;;;;5.33;51.50;100782.50;4835140;29;20523;-79
2022/02/25 07:41:34;;;;;;;13.20;6.18;;;;;;;5.32;52.06;100784.31;4834988;29;20048;-79
2022/02/25 07:44:00;;;;;;;9.80;6.57;;;;;;;5.75;52.80;100780.09;4865496;29;20469;-79
2022/02/25 07:46:26;;;;;;;8.68;5.93;;;;;;;6.28;52.09;100779.00;4881397;29;20048;-80
2022/02/25 07:48:53;;;;;;;10.20;6.50;;;;;;;6.42;50.28;100771.34;4881018;29;20048;-79
2022/02/25 07:51:19;;;;;;;11.52;7.47;;;;;;;6.88;50.74;100777.44;4868061;29;20080;-79
2022/02/25 07:53:46;;;;;;;11.88;7.53;;;;;;;7.29;49.79;100775.66;4884795;29;20068;-80
2022/02/25 07:56:13;;;;;;;14.13;8.35;;;;;;;7.51;49.41;100774.72;4900562;29;20458;-78
2022/02/25 07:58:38;;;;;;;20.02;8.18;;;;;;;7.34;48.02;100762.19;4854075;29;20048;-78
2022/02/25 08:01:05;;;;;;;13.00;7.75;;;;;;;7.26;48.72;100770.50;4901492;29;20052;-80
2022/02/25 08:03:31;;;;;;;15.50;7.75;;;;;;;7.11;49.03;100770.28;4884620;29;20445;-80
2022/02/25 08:05:57;;;;;;;13.73;7.97;;;;;;;6.93;48.35;100764.81;4868956;29;20061;-80
2022/02/25 08:08:22;;;;;;;11.52;7.03;;;;;;;7.13;48.70;100777.25;4901361;29;20072;-78
2022/02/25 08:10:48;;;;;;;9.48;6.28;;;;;;;7.26;48.31;100772.31;4885055;29;20087;-87
2022/02/25 08:13:14;;;;;;;9.73;6.40;;;;;;;7.06;48.31;100776.66;4870275;29;20092;-89
2022/02/25 08:15:42;;;;;;;10.63;6.43;;;;;;;6.79;48.28;100772.50;4903910;29;20087;-79
2022/02/25 08:18:08;;;;;;;8.60;6.38;;;;;;;7.02;48.65;100780.38;4869583;29;20517;-78
2022/02/25 08:20:34;;;;;;;14.30;6.97;;;;;;;6.95;48.51;100776.25;4900023;29;20082;-80
2022/02/25 08:23:02;;;;;;;10.52;6.60;;;;;;;6.66;48.24;100779.28;4869014;29;20398;-81
2022/02/25 08:25:28;;;;;;;10.52;7.32;;;;;;;6.55;49.15;100783.22;4869071;29;20047;-80
2022/02/25 08:27:54;;;;;;;10.38;6.03;;;;;;;6.53;48.25;100781.53;4853913;29;20474;-80
2022/02/25 08:30:21;;;;;;;13.18;8.13;;;;;;;6.68;49.06;100767.63;4884210;29;20068;-81
2022/02/25 08:32:49;;;;;;;10.93;7.13;;;;;;;6.86;48.39;100786.41;4900147;29;20127;-82
2022/02/25 08:35:16;;;;;;;11.35;6.60;;;;;;;7.00;49.14;100774.28;4853566;29;20056;-81
2022/02/25 08:37:42;;;;;;;8.32;6.13;;;;;;;7.57;48.48;100779.78;4868850;29;20489;-79
2022/02/25 08:40:09;;;;;;;13.55;7.53;;;;;;;7.43;46.91;100783.03;4855274;29;20139;-80
2022/02/25 08:42:37;;;;;;;8.27;6.38;;;;;;;7.25;47.06;100791.81;4843575;29;20049;-80
2022/02/25 08:45:08;;;;;;;13.00;7.10;;;;;;;7.40;47.62;100795.63;4887129;29;20053;-81
2022/02/25 08:47:34;;;;;;;19.35;7.45;;;;;;;7.71;47.60;100797.78;4871914;29;20424;-82
2022/02/25 08:50:00;;;;;;;10.48;7.40;;;;;;;8.15;46.77;100797.53;4884428;29;20048;-82
2022/02/25 08:52:26;;;;;;;11.50;7.85;;;;;;;7.72;46.25;100802.19;4853896;29;20527;-79
2022/02/25 08:54:52;;;;;;;9.00;7.10;;;;;;;7.84;46.21;100800.75;4886576;29;20519;-81
2022/02/25 08:57:19;;;;;;;11.02;8.00;;;;;;;7.97;45.88;100800.16;4852985;29;20552;-81
2022/02/25 08:59:45;;;;;;;12.00;8.27;;;;;;;8.09;46.34;100795.19;4883987;29;20108;-84
2022/02/25 09:02:11;;;;;;;12.57;8.50;;;;;;;8.16;45.85;100804.59;4882437;29;20053;-79
2022/02/25 09:04:37;;;;;;;12.68;8.40;;;;;;;8.51;45.68;100800.31;4867840;29;20138;-82
2022/02/25 09:07:04;;;;;;;11.45;8.40;;;;;;;8.74;45.34;100797.38;4852424;29;20048;-83
2022/02/25 09:09:29;;;;;;;11.73;8.30;;;;;;;9.00;45.35;100804.09;4867751;29;20409;-81
2022/02/25 09:11:56;;;;;;;12.32;8.15;;;;;;;8.55;43.75;100801.03;4851820;29;20064;-83
2022/02/25 09:14:23;;;;;;;16.40;8.80;;;;;;;8.10;44.87;100799.56;4852770;29;20095;-82
2022/02/25 09:16:49;;;;;;;12.95;8.60;;;;;;;7.73;45.78;100802.09;4852735;29;20060;-80
2022/02/25 09:19:15;;;;;;;14.07;9.32;;;;;;;7.86;46.04;100805.09;4900039;29;20068;-82
2022/02/25 09:21:41;;;;;;;12.50;8.15;;;;;;;8.18;46.18;100805.41;4898390;29;20420;-77
2022/02/25 09:24:07;;;;;;;14.15;7.93;;;;;;;7.68;45.08;100793.47;4899362;29;20059;-81
2022/02/25 09:26:33;;;;;;;14.55;8.00;;;;;;;7.68;45.75;100797.94;4866923;29;20063;-82
2022/02/25 09:28:59;;;;;;;11.20;8.77;;;;;;;8.18;45.75;100797.41;4867455;29;20048;-80
2022/02/25 09:31:26;;;;;;;18.83;9.07;;;;;;;7.55;45.58;100798.47;4867264;29;20056;-81
2022/02/25 09:33:52;;;;;;;11.60;8.63;;;;;;;7.04;46.90;100791.81;4882799;29;20047;-83
2022/02/25 09:36:18;;;;;;;13.30;8.80;;;;;;;7.19;47.09;100794.78;4851616;29;20059;-83
2022/02/25 09:38:44;;;;;;;12.77;8.05;;;;;;;6.98;47.56;100791.22;4899411;29;20045;-82
2022/02/25 09:41:10;;;;;;;13.30;8.98;;;;;;;7.16;47.74;100795.75;4897876;29;20108;-78
2022/02/25 09:43:37;;;;;;;13.30;9.35;;;;;;;7.70;46.83;100796.06;4898030;29;20124;-81
2022/02/25 09:46:06;;;;;;;11.68;8.20;;;;;;;8.14;46.21;100794.03;4898361;29;20044;-84
2022/02/25 09:48:32;;;;;;;14.95;9.77;;;;;;;8.41;45.67;100793.69;4906312;29;20127;-83
2022/02/25 09:50:58;;;;;;;13.10;8.27;;;;;;;8.30;45.68;100785.31;4896166;29;20067;-83
2022/02/25 09:53:25;;;;;;;13.35;9.48;;;;;;;8.39;44.55;100800.91;4908264;29;20143;-82
2022/02/25 09:55:51;;;;;;;15.40;9.23;;;;;;;8.54;44.87;100793.94;4884363;29;20143;-83
2022/02/25 09:58:17;;;;;;;14.98;9.38;;;;;;;8.74;44.65;100799.19;4867031;29;20090;-83
2022/02/25 10:00:44;;;;;;;13.35;9.75;;;;;;;8.79;44.59;100788.28;4899145;29;20056;-83
2022/02/25 10:03:14;;;;;;;14.18;10.00;;;;;;;8.84;44.99;100789.78;4900291;29;20040;-82
2022/02/25 10:05:42;;;;;;;15.52;10.90;;;;;;;8.99;44.51;100797.03;4900723;29;20046;-83
2022/02/25 10:08:21;;;;;;;14.10;10.00;;;;;;;8.87;43.98;100792.28;4917924;29;20191;-86
2022/02/25 10:10:56;;;;;;;14.35;9.80;;;;;;;8.82;44.61;100793.47;4916835;29;20058;-85
2022/02/25 10:13:24;;;;;;;14.48;9.35;;;;;;;8.76;44.51;100786.63;4916190;29;20068;-82
2022/02/25 10:15:54;;;;;;;14.25;9.60;;;;;;;8.98;44.96;100789.09;4916118;29;20032;-81
2022/02/25 10:18:29;;;;;;;18.23;10.32;;;;;;;9.04;44.30;100788.78;4916310;29;20043;-81
2022/02/25 10:21:03;;;;;;;14.68;10.25;;;;;;;8.99;44.81;100786.38;4900465;29;20088;-81
2022/02/25 10:23:35;;;;;;;12.80;8.85;;;;;;;9.10;43.03;100779.59;4916854;29;20080;-82
2022/02/25 10:26:07;;;;;;;11.48;8.30;;;;;;;9.00;43.42;100788.09;4899649;29;20599;-86
2022/02/25 10:28:35;;;;;;;11.88;7.97;;;;;;;8.96;43.69;100782.97;4917491;29;20094;-84
2022/02/25 10:31:33;;;;;;;10.48;7.43;;;;;;;9.18;42.51;100780.09;4915970;29;20415;-84
2022/02/25 10:34:04;;;;;;;13.43;8.63;;;;;;;9.47;42.32;100776.75;4915777;29;20405;-84
2022/02/25 10:36:46;;;;;;;11.70;8.95;;;;;;;9.54;42.10;100781.78;4916203;29;20062;-83
2022/02/25 10:39:25;;;;;;;11.93;8.70;;;;;;;9.55;41.39;100784.34;4899898;29;20550;-84
2022/02/25 10:42:00;;;;;;;11.20;8.20;;;;;;;9.97;40.72;100785.69;4916573;29;20138;-84
2022/02/25 10:44:46;;;;;;;9.75;7.78;;;;;;;10.15;40.22;100775.78;4917220;29;20363;-84
2022/02/25 10:47:18;;;;;;;13.65;9.70;;;;;;;10.04;40.66;100780.84;4915962;29;20151;-82
2022/02/25 10:49:46;;;;;;;14.00;9.10;;;;;;;10.37;40.09;100779.00;4916389;29;20519;-82
2022/02/25 10:52:34;;;;;;;12.30;8.38;;;;;;;10.33;39.54;100777.47;4915710;29;20058;-82
2022/02/25 10:55:11;;;;;;;13.13;8.65;;;;;;;10.55;39.97;100776.25;4900815;29;20524;-83
2022/02/25 10:57:38;;;;;;;15.77;9.68;;;;;;;10.53;39.66;100784.38;4915094;29;20070;-84
2022/02/25 11:00:11;;;;;;;11.35;7.82;;;;;;;10.16;39.54;100788.22;4915423;29;20134;-81
2022/02/25 11:02:39;;;;;;;11.57;7.43;;;;;;;9.24;39.83;100795.78;4899936;29;20143;-84
2022/02/25 11:05:23;;;;;;;10.93;7.55;;;;;;;8.98;40.96;100789.94;4916376;29;20198;-84
2022/02/25 11:07:56;;;;;;;11.73;7.93;;;;;;;9.13;41.37;100782.97;4915368;29;20048;-82
2022/02/25 11:10:25;;;;;;;17.60;7.07;;;;;;;9.64;39.88;100789.22;4884533;29;20413;-84
2022/02/25 11:12:53;;;;;;;10.07;7.25;;;;;;;9.92;39.54;100787.72;4915095;29;20064;-83
2022/02/25 11:15:25;;;;;;;10.88;7.30;;;;;;;10.01;39.43;100795.25;4915502;29;20496;-83
2022/02/25 11:17:52;;;;;;;11.55;7.43;;;;;;;10.17;39.40;100787.25;4883587;29;20040;-83
2022/02/25 11:20:43;;;;;;;11.60;7.68;;;;;;;10.13;38.24;100797.25;4881943;29;20130;-83
2022/02/25 11:23:12;;;;;;;10.48;7.88;;;;;;;10.32;39.04;100786.44;4907557;29;20040;-85
2022/02/25 11:25:40;;;;;;;10.48;7.63;;;;;;;10.68;38.85;100793.31;4904609;29;20037;-83